sensor_id;sensor_type;location;lat;lon;timestamp;P1;durP1;ratioP1;P2;durP2;ratioP2
41739;SDS011;27422;52.444;13.300;2023-07-13T00:01:29;3.97;;;1.95;;
41739;SDS011;27422;52.444;13.300;2023-07-13T00:03:56;5.32;;;1.90;;
41739;SDS011;27422;52.444;13.300;2023-07-13T00:06:22;3.42;;;1.75;;
41739;SDS011;27422;52.444;13.300;2023-07-13T00:08:47;2.90;;;1.60;;
41739;SDS011;27422;52.444;13.300;2023-07-13T00:11:16;4.38;;;1.88;;
41739;SDS011;27422;52.444;13.300;2023-07-13T00:13:42;4.18;;;1.80;;
41739;SDS011;27422;52.444;13.300;2023-07-13T00:16:09;2.60;;;1.40;;
41739;SDS011;27422;52.444;13.300;2023-07-13T00:18:36;6.22;;;1.98;;
41739;SDS011;27422;52.444;13.300;2023-07-13T00:21:03;4.10;;;1.70;;
41739;SDS011;27422;52.444;13.300;2023-07-13T00:23:32;3.90;;;1.50;;
41739;SDS011;27422;52.444;13.300;2023-07-13T00:26:01;5.35;;;2.15;;
41739;SDS011;27422;52.444;13.300;2023-07-13T00:28:28;4.10;;;1.90;;
41739;SDS011;27422;52.444;13.300;2023-07-13T00:30:53;4.47;;;1.90;;
41739;SDS011;27422;52.444;13.300;2023-07-13T00:33:19;4.13;;;1.70;;
41739;SDS011;27422;52.444;13.300;2023-07-13T00:35:45;4.45;;;1.90;;
41739;SDS011;27422;52.444;13.300;2023-07-13T00:38:11;4.55;;;1.85;;
41739;SDS011;27422;52.444;13.300;2023-07-13T00:40:37;4.47;;;1.73;;
41739;SDS011;27422;52.444;13.300;2023-07-13T00:43:02;4.65;;;1.60;;
41739;SDS011;27422;52.444;13.300;2023-07-13T00:48:13;4.72;;;1.80;;
41739;SDS011;27422;52.444;13.300;2023-07-13T00:50:40;3.80;;;1.73;;
41739;SDS011;27422;52.444;13.300;2023-07-13T00:53:06;5.25;;;1.98;;
41739;SDS011;27422;52.444;13.300;2023-07-13T00:55:33;4.47;;;1.77;;
41739;SDS011;27422;52.444;13.300;2023-07-13T00:57:59;3.65;;;1.70;;
41739;SDS011;27422;52.444;13.300;2023-07-13T01:00:24;4.85;;;1.80;;
41739;SDS011;27422;52.444;13.300;2023-07-13T01:02:53;5.50;;;1.90;;
41739;SDS011;27422;52.444;13.300;2023-07-13T01:05:22;4.28;;;1.90;;
41739;SDS011;27422;52.444;13.300;2023-07-13T01:07:49;4.53;;;2.00;;
41739;SDS011;27422;52.444;13.300;2023-07-13T01:10:17;4.22;;;1.70;;
41739;SDS011;27422;52.444;13.300;2023-07-13T01:12:43;4.35;;;1.90;;
41739;SDS011;27422;52.444;13.300;2023-07-13T01:17:59;4.80;;;2.00;;
41739;SDS011;27422;52.444;13.300;2023-07-13T01:20:25;4.22;;;2.00;;
41739;SDS011;27422;52.444;13.300;2023-07-13T01:22:53;7.28;;;2.25;;
41739;SDS011;27422;52.444;13.300;2023-07-13T01:25:19;4.82;;;2.00;;
41739;SDS011;27422;52.444;13.300;2023-07-13T01:27:45;5.32;;;2.00;;
41739;SDS011;27422;52.444;13.300;2023-07-13T01:30:10;3.72;;;1.67;;
41739;SDS011;27422;52.444;13.300;2023-07-13T01:32:36;4.70;;;1.90;;
41739;SDS011;27422;52.444;13.300;2023-07-13T01:35:02;4.05;;;1.90;;
41739;SDS011;27422;52.444;13.300;2023-07-13T01:37:27;4.15;;;2.03;;
41739;SDS011;27422;52.444;13.300;2023-07-13T01:39:58;3.65;;;2.00;;
41739;SDS011;27422;52.444;13.300;2023-07-13T01:42:23;4.88;;;1.85;;
41739;SDS011;27422;52.444;13.300;2023-07-13T01:44:49;4.45;;;1.92;;
41739;SDS011;27422;52.444;13.300;2023-07-13T01:47:14;4.07;;;1.90;;
41739;SDS011;27422;52.444;13.300;2023-07-13T01:49:40;4.88;;;2.30;;
41739;SDS011;27422;52.444;13.300;2023-07-13T01:52:06;5.18;;;2.20;;
41739;SDS011;27422;52.444;13.300;2023-07-13T01:54:32;4.50;;;2.30;;
41739;SDS011;27422;52.444;13.300;2023-07-13T01:56:59;4.35;;;1.92;;
41739;SDS011;27422;52.444;13.300;2023-07-13T01:59:24;3.90;;;2.10;;
41739;SDS011;27422;52.444;13.300;2023-07-13T02:01:50;3.85;;;1.90;;
41739;SDS011;27422;52.444;13.300;2023-07-13T02:04:17;3.95;;;1.75;;
41739;SDS011;27422;52.444;13.300;2023-07-13T02:06:52;4.70;;;2.00;;
41739;SDS011;27422;52.444;13.300;2023-07-13T02:09:17;4.25;;;2.17;;
41739;SDS011;27422;52.444;13.300;2023-07-13T02:11:43;4.90;;;2.30;;
41739;SDS011;27422;52.444;13.300;2023-07-13T02:14:08;4.53;;;2.65;;
41739;SDS011;27422;52.444;13.300;2023-07-13T02:16:34;5.35;;;2.50;;
41739;SDS011;27422;52.444;13.300;2023-07-13T02:18:59;5.72;;;1.95;;
41739;SDS011;27422;52.444;13.300;2023-07-13T02:21:25;4.75;;;2.30;;
41739;SDS011;27422;52.444;13.300;2023-07-13T02:23:53;4.53;;;2.35;;
41739;SDS011;27422;52.444;13.300;2023-07-13T02:26:19;3.85;;;2.30;;
41739;SDS011;27422;52.444;13.300;2023-07-13T02:28:45;5.85;;;2.28;;
41739;SDS011;27422;52.444;13.300;2023-07-13T02:31:12;5.57;;;2.47;;
41739;SDS011;27422;52.444;13.300;2023-07-13T02:33:39;3.80;;;2.30;;
41739;SDS011;27422;52.444;13.300;2023-07-13T02:36:04;5.15;;;2.53;;
41739;SDS011;27422;52.444;13.300;2023-07-13T02:38:33;4.55;;;2.33;;
41739;SDS011;27422;52.444;13.300;2023-07-13T02:41:19;4.63;;;2.47;;
41739;SDS011;27422;52.444;13.300;2023-07-13T02:43:44;4.82;;;2.35;;
41739;SDS011;27422;52.444;13.300;2023-07-13T02:46:10;5.10;;;2.38;;
41739;SDS011;27422;52.444;13.300;2023-07-13T02:48:36;5.15;;;2.50;;
41739;SDS011;27422;52.444;13.300;2023-07-13T02:51:05;4.88;;;2.40;;
41739;SDS011;27422;52.444;13.300;2023-07-13T02:53:30;5.00;;;2.95;;
41739;SDS011;27422;52.444;13.300;2023-07-13T02:55:56;4.35;;;2.40;;
41739;SDS011;27422;52.444;13.300;2023-07-13T02:58:21;4.78;;;2.40;;
41739;SDS011;27422;52.444;13.300;2023-07-13T03:00:47;4.85;;;2.30;;
41739;SDS011;27422;52.444;13.300;2023-07-13T03:03:15;5.45;;;2.30;;
41739;SDS011;27422;52.444;13.300;2023-07-13T03:05:41;3.72;;;2.40;;
41739;SDS011;27422;52.444;13.300;2023-07-13T03:08:08;4.40;;;2.22;;
41739;SDS011;27422;52.444;13.300;2023-07-13T03:10:34;4.53;;;2.38;;
41739;SDS011;27422;52.444;13.300;2023-07-13T03:12:59;6.03;;;2.33;;
41739;SDS011;27422;52.444;13.300;2023-07-13T03:15:25;3.80;;;2.40;;
41739;SDS011;27422;52.444;13.300;2023-07-13T03:17:50;6.22;;;2.72;;
41739;SDS011;27422;52.444;13.300;2023-07-13T03:20:16;5.05;;;2.40;;
41739;SDS011;27422;52.444;13.300;2023-07-13T03:22:45;6.68;;;2.40;;
41739;SDS011;27422;52.444;13.300;2023-07-13T03:25:10;7.20;;;2.70;;
41739;SDS011;27422;52.444;13.300;2023-07-13T03:27:36;4.13;;;2.60;;
41739;SDS011;27422;52.444;13.300;2023-07-13T03:30:03;6.28;;;2.70;;
41739;SDS011;27422;52.444;13.300;2023-07-13T03:32:29;7.00;;;2.30;;
41739;SDS011;27422;52.444;13.300;2023-07-13T03:34:54;4.68;;;2.42;;
41739;SDS011;27422;52.444;13.300;2023-07-13T03:37:20;5.97;;;2.30;;
41739;SDS011;27422;52.444;13.300;2023-07-13T03:39:46;6.90;;;2.50;;
41739;SDS011;27422;52.444;13.300;2023-07-13T03:42:11;4.30;;;2.50;;
41739;SDS011;27422;52.444;13.300;2023-07-13T03:44:38;6.25;;;2.35;;
41739;SDS011;27422;52.444;13.300;2023-07-13T03:47:04;5.28;;;2.35;;
41739;SDS011;27422;52.444;13.300;2023-07-13T03:49:34;6.40;;;2.45;;
41739;SDS011;27422;52.444;13.300;2023-07-13T03:51:59;5.40;;;2.45;;
41739;SDS011;27422;52.444;13.300;2023-07-13T03:54:25;4.70;;;2.50;;
41739;SDS011;27422;52.444;13.300;2023-07-13T03:56:50;4.82;;;2.47;;
41739;SDS011;27422;52.444;13.300;2023-07-13T03:59:17;5.15;;;2.70;;
41739;SDS011;27422;52.444;13.300;2023-07-13T04:01:43;4.18;;;2.40;;
41739;SDS011;27422;52.444;13.300;2023-07-13T04:04:09;5.25;;;2.88;;
41739;SDS011;27422;52.444;13.300;2023-07-13T04:06:34;5.45;;;2.80;;
41739;SDS011;27422;52.444;13.300;2023-07-13T04:09:00;4.75;;;2.35;;
41739;SDS011;27422;52.444;13.300;2023-07-13T04:11:29;6.90;;;2.80;;
41739;SDS011;27422;52.444;13.300;2023-07-13T04:14:00;6.72;;;3.13;;
41739;SDS011;27422;52.444;13.300;2023-07-13T04:16:26;7.10;;;2.65;;
41739;SDS011;27422;52.444;13.300;2023-07-13T04:18:52;5.53;;;2.50;;
41739;SDS011;27422;52.444;13.300;2023-07-13T04:21:25;4.13;;;2.17;;
41739;SDS011;27422;52.444;13.300;2023-07-13T04:24:03;5.43;;;2.53;;
41739;SDS011;27422;52.444;13.300;2023-07-13T04:28:54;5.15;;;2.55;;
41739;SDS011;27422;52.444;13.300;2023-07-13T04:31:20;5.40;;;2.47;;
41739;SDS011;27422;52.444;13.300;2023-07-13T04:33:46;3.95;;;2.42;;
41739;SDS011;27422;52.444;13.300;2023-07-13T04:36:12;5.50;;;2.30;;
41739;SDS011;27422;52.444;13.300;2023-07-13T04:38:37;4.57;;;2.58;;
41739;SDS011;27422;52.444;13.300;2023-07-13T04:41:06;4.50;;;2.05;;
41739;SDS011;27422;52.444;13.300;2023-07-13T04:43:32;5.35;;;2.50;;
41739;SDS011;27422;52.444;13.300;2023-07-13T04:46:05;6.07;;;2.50;;
41739;SDS011;27422;52.444;13.300;2023-07-13T04:48:43;4.47;;;2.05;;
41739;SDS011;27422;52.444;13.300;2023-07-13T04:51:12;3.33;;;1.83;;
41739;SDS011;27422;52.444;13.300;2023-07-13T04:53:40;3.72;;;1.92;;
41739;SDS011;27422;52.444;13.300;2023-07-13T04:56:05;4.07;;;1.88;;
41739;SDS011;27422;52.444;13.300;2023-07-13T04:58:30;5.97;;;2.08;;
41739;SDS011;27422;52.444;13.300;2023-07-13T05:01:00;4.43;;;2.08;;
41739;SDS011;27422;52.444;13.300;2023-07-13T05:03:29;5.22;;;2.30;;
41739;SDS011;27422;52.444;13.300;2023-07-13T05:05:59;3.85;;;2.00;;
41739;SDS011;27422;52.444;13.300;2023-07-13T05:08:27;4.93;;;1.80;;
41739;SDS011;27422;52.444;13.300;2023-07-13T05:10:53;4.30;;;1.85;;
41739;SDS011;27422;52.444;13.300;2023-07-13T05:13:18;5.13;;;2.13;;
41739;SDS011;27422;52.444;13.300;2023-07-13T05:15:44;6.55;;;2.10;;
41739;SDS011;27422;52.444;13.300;2023-07-13T05:18:12;4.68;;;2.00;;
41739;SDS011;27422;52.444;13.300;2023-07-13T05:20:37;5.75;;;1.90;;
41739;SDS011;27422;52.444;13.300;2023-07-13T05:23:03;3.70;;;1.88;;
41739;SDS011;27422;52.444;13.300;2023-07-13T05:25:28;4.43;;;1.75;;
41739;SDS011;27422;52.444;13.300;2023-07-13T05:27:54;5.18;;;1.83;;
41739;SDS011;27422;52.444;13.300;2023-07-13T05:30:23;5.32;;;1.98;;
41739;SDS011;27422;52.444;13.300;2023-07-13T05:32:49;4.25;;;1.60;;
41739;SDS011;27422;52.444;13.300;2023-07-13T05:35:15;4.45;;;1.75;;
41739;SDS011;27422;52.444;13.300;2023-07-13T05:37:41;3.47;;;1.67;;
41739;SDS011;27422;52.444;13.300;2023-07-13T05:40:06;6.35;;;1.73;;
41739;SDS011;27422;52.444;13.300;2023-07-13T05:42:32;5.50;;;1.67;;
41739;SDS011;27422;52.444;13.300;2023-07-13T05:44:58;4.55;;;1.60;;
41739;SDS011;27422;52.444;13.300;2023-07-13T05:47:24;5.03;;;1.77;;
41739;SDS011;27422;52.444;13.300;2023-07-13T05:49:49;3.72;;;1.50;;
41739;SDS011;27422;52.444;13.300;2023-07-13T05:52:15;3.28;;;1.60;;
41739;SDS011;27422;52.444;13.300;2023-07-13T05:54:40;4.22;;;1.70;;
41739;SDS011;27422;52.444;13.300;2023-07-13T05:57:06;3.25;;;1.63;;
41739;SDS011;27422;52.444;13.300;2023-07-13T05:59:32;3.75;;;1.65;;
41739;SDS011;27422;52.444;13.300;2023-07-13T06:01:57;4.43;;;1.80;;
41739;SDS011;27422;52.444;13.300;2023-07-13T06:04:22;4.45;;;1.40;;
41739;SDS011;27422;52.444;13.300;2023-07-13T06:06:48;4.85;;;1.73;;
41739;SDS011;27422;52.444;13.300;2023-07-13T06:09:13;4.72;;;1.60;;
41739;SDS011;27422;52.444;13.300;2023-07-13T06:11:39;4.78;;;1.70;;
41739;SDS011;27422;52.444;13.300;2023-07-13T06:14:05;7.05;;;1.83;;
41739;SDS011;27422;52.444;13.300;2023-07-13T06:16:35;4.07;;;1.58;;
41739;SDS011;27422;52.444;13.300;2023-07-13T06:19:02;3.95;;;1.58;;
41739;SDS011;27422;52.444;13.300;2023-07-13T06:21:31;5.28;;;1.63;;
41739;SDS011;27422;52.444;13.300;2023-07-13T06:23:57;5.30;;;1.40;;
41739;SDS011;27422;52.444;13.300;2023-07-13T06:26:22;5.68;;;1.50;;
41739;SDS011;27422;52.444;13.300;2023-07-13T06:28:47;4.55;;;1.58;;
41739;SDS011;27422;52.444;13.300;2023-07-13T06:31:13;3.60;;;1.30;;
41739;SDS011;27422;52.444;13.300;2023-07-13T06:33:44;6.03;;;1.35;;
41739;SDS011;27422;52.444;13.300;2023-07-13T06:36:14;3.38;;;1.40;;
41739;SDS011;27422;52.444;13.300;2023-07-13T06:38:45;4.63;;;1.42;;
41739;SDS011;27422;52.444;13.300;2023-07-13T06:41:11;4.20;;;1.40;;
41739;SDS011;27422;52.444;13.300;2023-07-13T06:43:40;3.75;;;1.40;;
41739;SDS011;27422;52.444;13.300;2023-07-13T06:46:25;3.10;;;1.20;;
41739;SDS011;27422;52.444;13.300;2023-07-13T06:48:51;3.88;;;0.98;;
41739;SDS011;27422;52.444;13.300;2023-07-13T06:51:16;3.22;;;1.30;;
41739;SDS011;27422;52.444;13.300;2023-07-13T06:53:42;6.38;;;1.40;;
41739;SDS011;27422;52.444;13.300;2023-07-13T06:56:08;4.50;;;1.42;;
41739;SDS011;27422;52.444;13.300;2023-07-13T06:58:35;5.35;;;1.48;;
41739;SDS011;27422;52.444;13.300;2023-07-13T07:01:00;4.15;;;1.50;;
41739;SDS011;27422;52.444;13.300;2023-07-13T07:03:26;3.63;;;1.10;;
41739;SDS011;27422;52.444;13.300;2023-07-13T07:05:51;3.75;;;1.00;;
41739;SDS011;27422;52.444;13.300;2023-07-13T07:08:17;3.30;;;1.17;;
41739;SDS011;27422;52.444;13.300;2023-07-13T07:10:42;2.90;;;1.05;;
41739;SDS011;27422;52.444;13.300;2023-07-13T07:13:08;4.00;;;1.00;;
41739;SDS011;27422;52.444;13.300;2023-07-13T07:15:54;4.10;;;1.42;;
41739;SDS011;27422;52.444;13.300;2023-07-13T07:18:20;5.78;;;1.40;;
41739;SDS011;27422;52.444;13.300;2023-07-13T07:20:45;3.20;;;0.90;;
41739;SDS011;27422;52.444;13.300;2023-07-13T07:23:11;2.72;;;0.93;;
41739;SDS011;27422;52.444;13.300;2023-07-13T07:25:36;4.97;;;1.10;;
41739;SDS011;27422;52.444;13.300;2023-07-13T07:28:07;2.90;;;0.90;;
41739;SDS011;27422;52.444;13.300;2023-07-13T07:30:35;3.58;;;0.93;;
41739;SDS011;27422;52.444;13.300;2023-07-13T07:33:01;3.35;;;0.95;;
41739;SDS011;27422;52.444;13.300;2023-07-13T07:35:27;3.20;;;1.05;;
41739;SDS011;27422;52.444;13.300;2023-07-13T07:37:55;3.65;;;1.08;;
41739;SDS011;27422;52.444;13.300;2023-07-13T07:40:20;3.13;;;0.85;;
41739;SDS011;27422;52.444;13.300;2023-07-13T07:42:46;2.55;;;0.77;;
41739;SDS011;27422;52.444;13.300;2023-07-13T07:45:11;3.35;;;0.90;;
41739;SDS011;27422;52.444;13.300;2023-07-13T07:47:37;3.85;;;0.80;;
41739;SDS011;27422;52.444;13.300;2023-07-13T07:50:03;3.30;;;0.80;;
41739;SDS011;27422;52.444;13.300;2023-07-13T07:52:29;2.30;;;0.80;;
41739;SDS011;27422;52.444;13.300;2023-07-13T07:54:54;2.75;;;0.80;;
41739;SDS011;27422;52.444;13.300;2023-07-13T07:57:40;3.47;;;1.00;;
41739;SDS011;27422;52.444;13.300;2023-07-13T08:00:06;3.97;;;1.00;;
41739;SDS011;27422;52.444;13.300;2023-07-13T08:02:32;2.97;;;1.00;;
41739;SDS011;27422;52.444;13.300;2023-07-13T08:04:57;3.25;;;1.20;;
41739;SDS011;27422;52.444;13.300;2023-07-13T08:07:25;6.30;;;1.17;;
41739;SDS011;27422;52.444;13.300;2023-07-13T08:09:53;2.42;;;0.98;;
41739;SDS011;27422;52.444;13.300;2023-07-13T08:12:19;3.42;;;1.00;;
41739;SDS011;27422;52.444;13.300;2023-07-13T08:14:45;3.72;;;0.80;;
41739;SDS011;27422;52.444;13.300;2023-07-13T08:17:18;4.38;;;0.95;;
41739;SDS011;27422;52.444;13.300;2023-07-13T08:19:47;4.03;;;1.00;;
41739;SDS011;27422;52.444;13.300;2023-07-13T08:22:12;2.88;;;0.82;;
41739;SDS011;27422;52.444;13.300;2023-07-13T08:24:38;4.15;;;1.05;;
41739;SDS011;27422;52.444;13.300;2023-07-13T08:29:58;1.80;;;0.80;;
41739;SDS011;27422;52.444;13.300;2023-07-13T08:32:26;3.40;;;1.33;;
41739;SDS011;27422;52.444;13.300;2023-07-13T08:34:55;4.95;;;1.10;;
41739;SDS011;27422;52.444;13.300;2023-07-13T08:37:23;2.92;;;0.80;;
41739;SDS011;27422;52.444;13.300;2023-07-13T08:39:57;3.85;;;0.85;;
41739;SDS011;27422;52.444;13.300;2023-07-13T08:42:29;3.05;;;1.10;;
41739;SDS011;27422;52.444;13.300;2023-07-13T08:45:13;2.65;;;0.90;;
41739;SDS011;27422;52.444;13.300;2023-07-13T08:48:48;2.70;;;1.10;;
41739;SDS011;27422;52.444;13.300;2023-07-13T08:50:51;2.20;;;0.80;;
41739;SDS011;27422;52.444;13.300;2023-07-13T08:53:22;2.85;;;0.80;;
41739;SDS011;27422;52.444;13.300;2023-07-13T08:55:48;3.35;;;0.60;;
41739;SDS011;27422;52.444;13.300;2023-07-13T08:58:17;2.00;;;0.80;;
41739;SDS011;27422;52.444;13.300;2023-07-13T09:00:52;2.45;;;0.93;;
41739;SDS011;27422;52.444;13.300;2023-07-13T09:03:40;3.35;;;0.90;;
41739;SDS011;27422;52.444;13.300;2023-07-13T09:06:14;4.10;;;0.90;;
41739;SDS011;27422;52.444;13.300;2023-07-13T09:17:22;3.22;;;0.82;;
41739;SDS011;27422;52.444;13.300;2023-07-13T09:19:59;5.30;;;1.00;;
41739;SDS011;27422;52.444;13.300;2023-07-13T09:22:31;2.60;;;0.90;;
41739;SDS011;27422;52.444;13.300;2023-07-13T09:27:36;3.45;;;0.90;;
41739;SDS011;27422;52.444;13.300;2023-07-13T09:33:01;2.47;;;1.00;;
41739;SDS011;27422;52.444;13.300;2023-07-13T09:35:28;5.50;;;1.33;;
41739;SDS011;27422;52.444;13.300;2023-07-13T09:37:58;4.65;;;1.40;;
41739;SDS011;27422;52.444;13.300;2023-07-13T09:40:33;4.97;;;1.63;;
41739;SDS011;27422;52.444;13.300;2023-07-13T09:43:04;3.95;;;1.52;;
41739;SDS011;27422;52.444;13.300;2023-07-13T09:45:33;3.57;;;1.50;;
41739;SDS011;27422;52.444;13.300;2023-07-13T09:48:05;3.38;;;1.30;;
41739;SDS011;27422;52.444;13.300;2023-07-13T09:50:35;3.30;;;1.40;;
41739;SDS011;27422;52.444;13.300;2023-07-13T09:53:01;5.03;;;1.52;;
41739;SDS011;27422;52.444;13.300;2023-07-13T09:55:37;4.40;;;1.70;;
41739;SDS011;27422;52.444;13.300;2023-07-13T09:58:13;5.75;;;1.88;;
41739;SDS011;27422;52.444;13.300;2023-07-13T10:00:41;3.42;;;1.50;;
41739;SDS011;27422;52.444;13.300;2023-07-13T10:03:28;4.45;;;1.42;;
41739;SDS011;27422;52.444;13.300;2023-07-13T10:06:01;4.00;;;1.55;;
41739;SDS011;27422;52.444;13.300;2023-07-13T10:08:35;4.65;;;1.55;;
41739;SDS011;27422;52.444;13.300;2023-07-13T10:11:11;3.40;;;1.23;;
41739;SDS011;27422;52.444;13.300;2023-07-13T10:13:43;3.40;;;1.30;;
41739;SDS011;27422;52.444;13.300;2023-07-13T10:16:10;3.05;;;1.10;;
41739;SDS011;27422;52.444;13.300;2023-07-13T10:23:36;4.25;;;1.50;;
41739;SDS011;27422;52.444;13.300;2023-07-13T10:26:02;5.28;;;1.30;;
41739;SDS011;27422;52.444;13.300;2023-07-13T10:28:33;3.15;;;1.30;;
41739;SDS011;27422;52.444;13.300;2023-07-13T10:31:01;4.03;;;1.38;;
41739;SDS011;27422;52.444;13.300;2023-07-13T10:33:26;4.75;;;1.73;;
41739;SDS011;27422;52.444;13.300;2023-07-13T10:36:03;4.03;;;1.40;;
41739;SDS011;27422;52.444;13.300;2023-07-13T10:38:40;4.65;;;1.52;;
41739;SDS011;27422;52.444;13.300;2023-07-13T10:41:08;4.40;;;1.25;;
41739;SDS011;27422;52.444;13.300;2023-07-13T10:46:09;3.40;;;1.30;;
41739;SDS011;27422;52.444;13.300;2023-07-13T10:48:36;3.75;;;1.42;;
41739;SDS011;27422;52.444;13.300;2023-07-13T10:51:03;2.50;;;0.98;;
41739;SDS011;27422;52.444;13.300;2023-07-13T10:53:33;2.90;;;1.10;;
41739;SDS011;27422;52.444;13.300;2023-07-13T11:01:09;3.45;;;1.15;;
41739;SDS011;27422;52.444;13.300;2023-07-13T11:03:37;3.13;;;0.90;;
41739;SDS011;27422;52.444;13.300;2023-07-13T11:06:16;3.42;;;0.80;;
41739;SDS011;27422;52.444;13.300;2023-07-13T11:09:48;3.53;;;1.13;;
41739;SDS011;27422;52.444;13.300;2023-07-13T11:12:00;3.35;;;1.08;;
41739;SDS011;27422;52.444;13.300;2023-07-13T11:14:29;4.63;;;1.15;;
41739;SDS011;27422;52.444;13.300;2023-07-13T11:16:55;3.45;;;0.85;;
41739;SDS011;27422;52.444;13.300;2023-07-13T11:22:10;4.18;;;1.00;;
41739;SDS011;27422;52.444;13.300;2023-07-13T11:27:42;2.80;;;1.00;;
41739;SDS011;27422;52.444;13.300;2023-07-13T11:32:33;3.23;;;1.30;;
41739;SDS011;27422;52.444;13.300;2023-07-13T11:35:00;3.05;;;1.20;;
41739;SDS011;27422;52.444;13.300;2023-07-13T11:37:25;4.10;;;1.37;;
41739;SDS011;27422;52.444;13.300;2023-07-13T11:39:51;3.93;;;1.10;;
41739;SDS011;27422;52.444;13.300;2023-07-13T11:42:18;3.50;;;1.00;;
41739;SDS011;27422;52.444;13.300;2023-07-13T11:44:46;4.80;;;1.17;;
41739;SDS011;27422;52.444;13.300;2023-07-13T11:47:22;2.63;;;0.85;;
41739;SDS011;27422;52.444;13.300;2023-07-13T11:49:49;4.90;;;1.08;;
41739;SDS011;27422;52.444;13.300;2023-07-13T11:52:18;3.65;;;1.10;;
41739;SDS011;27422;52.444;13.300;2023-07-13T11:54:49;4.28;;;1.13;;
41739;SDS011;27422;52.444;13.300;2023-07-13T11:57:27;3.90;;;1.08;;
41739;SDS011;27422;52.444;13.300;2023-07-13T11:59:56;3.55;;;1.15;;
41739;SDS011;27422;52.444;13.300;2023-07-13T12:02:31;6.43;;;1.15;;
41739;SDS011;27422;52.444;13.300;2023-07-13T12:04:58;3.65;;;1.20;;
41739;SDS011;27422;52.444;13.300;2023-07-13T12:10:03;3.85;;;1.23;;
41739;SDS011;27422;52.444;13.300;2023-07-13T12:13:01;3.73;;;1.30;;
41739;SDS011;27422;52.444;13.300;2023-07-13T12:18:19;2.92;;;0.90;;
41739;SDS011;27422;52.444;13.300;2023-07-13T12:20:46;4.65;;;0.93;;
41739;SDS011;27422;52.444;13.300;2023-07-13T12:23:24;3.40;;;1.02;;
41739;SDS011;27422;52.444;13.300;2023-07-13T12:25:55;3.53;;;1.10;;
41739;SDS011;27422;52.444;13.300;2023-07-13T12:31:04;3.20;;;1.00;;
41739;SDS011;27422;52.444;13.300;2023-07-13T12:33:31;4.57;;;1.13;;
41739;SDS011;27422;52.444;13.300;2023-07-13T12:35:59;5.72;;;1.13;;
41739;SDS011;27422;52.444;13.300;2023-07-13T12:38:28;5.25;;;1.30;;
41739;SDS011;27422;52.444;13.300;2023-07-13T12:40:55;4.05;;;1.50;;
41739;SDS011;27422;52.444;13.300;2023-07-13T12:43:22;2.35;;;0.80;;
41739;SDS011;27422;52.444;13.300;2023-07-13T12:46:03;3.38;;;1.20;;
41739;SDS011;27422;52.444;13.300;2023-07-13T12:48:37;4.15;;;1.05;;
41739;SDS011;27422;52.444;13.300;2023-07-13T12:51:04;4.43;;;1.30;;
41739;SDS011;27422;52.444;13.300;2023-07-13T12:53:35;3.85;;;1.30;;
41739;SDS011;27422;52.444;13.300;2023-07-13T12:56:05;3.58;;;1.02;;
41739;SDS011;27422;52.444;13.300;2023-07-13T12:58:38;4.20;;;1.10;;
41739;SDS011;27422;52.444;13.300;2023-07-13T13:01:09;3.70;;;1.33;;
41739;SDS011;27422;52.444;13.300;2023-07-13T13:03:40;4.45;;;1.20;;
41739;SDS011;27422;52.444;13.300;2023-07-13T13:08:47;3.08;;;0.85;;
41739;SDS011;27422;52.444;13.300;2023-07-13T13:11:14;4.30;;;1.00;;
41739;SDS011;27422;52.444;13.300;2023-07-13T13:13:41;3.13;;;0.90;;
41739;SDS011;27422;52.444;13.300;2023-07-13T13:16:20;3.55;;;1.10;;
41739;SDS011;27422;52.444;13.300;2023-07-13T13:18:57;2.88;;;0.90;;
41739;SDS011;27422;52.444;13.300;2023-07-13T13:21:27;4.15;;;1.00;;
41739;SDS011;27422;52.444;13.300;2023-07-13T13:23:53;4.03;;;1.08;;
41739;SDS011;27422;52.444;13.300;2023-07-13T13:26:19;2.58;;;0.90;;
41739;SDS011;27422;52.444;13.300;2023-07-13T13:28:48;4.53;;;1.08;;
41739;SDS011;27422;52.444;13.300;2023-07-13T13:31:14;3.90;;;1.00;;
41739;SDS011;27422;52.444;13.300;2023-07-13T13:33:41;3.58;;;0.90;;
41739;SDS011;27422;52.444;13.300;2023-07-13T13:36:21;3.78;;;1.00;;
41739;SDS011;27422;52.444;13.300;2023-07-13T13:38:50;3.58;;;0.77;;
41739;SDS011;27422;52.444;13.300;2023-07-13T13:41:16;5.53;;;0.85;;
41739;SDS011;27422;52.444;13.300;2023-07-13T13:43:42;3.70;;;0.90;;
41739;SDS011;27422;52.444;13.300;2023-07-13T13:46:16;2.45;;;0.90;;
41739;SDS011;27422;52.444;13.300;2023-07-13T13:48:43;4.53;;;1.13;;
41739;SDS011;27422;52.444;13.300;2023-07-13T13:51:18;2.22;;;0.85;;
41739;SDS011;27422;52.444;13.300;2023-07-13T13:53:46;4.07;;;0.93;;
41739;SDS011;27422;52.444;13.300;2023-07-13T13:56:12;2.08;;;0.70;;
41739;SDS011;27422;52.444;13.300;2023-07-13T13:58:38;2.78;;;0.68;;
41739;SDS011;27422;52.444;13.300;2023-07-13T14:01:19;4.32;;;0.70;;
41739;SDS011;27422;52.444;13.300;2023-07-13T14:03:45;4.18;;;0.93;;
41739;SDS011;27422;52.444;13.300;2023-07-13T14:06:12;5.43;;;0.80;;
41739;SDS011;27422;52.444;13.300;2023-07-13T14:08:38;3.67;;;0.98;;
41739;SDS011;27422;52.444;13.300;2023-07-13T14:11:04;3.13;;;0.60;;
41739;SDS011;27422;52.444;13.300;2023-07-13T14:13:36;3.72;;;0.57;;
41739;SDS011;27422;52.444;13.300;2023-07-13T14:16:09;2.70;;;0.60;;
41739;SDS011;27422;52.444;13.300;2023-07-13T14:18:37;2.85;;;0.90;;
41739;SDS011;27422;52.444;13.300;2023-07-13T14:21:03;3.58;;;0.90;;
41739;SDS011;27422;52.444;13.300;2023-07-13T14:23:28;2.58;;;0.50;;
41739;SDS011;27422;52.444;13.300;2023-07-13T14:25:54;3.25;;;0.70;;
41739;SDS011;27422;52.444;13.300;2023-07-13T14:28:20;2.97;;;0.80;;
41739;SDS011;27422;52.444;13.300;2023-07-13T14:30:48;3.85;;;0.90;;
41739;SDS011;27422;52.444;13.300;2023-07-13T14:33:37;4.53;;;0.93;;
41739;SDS011;27422;52.444;13.300;2023-07-13T14:36:05;1.98;;;0.63;;
41739;SDS011;27422;52.444;13.300;2023-07-13T14:38:45;2.83;;;0.73;;
41739;SDS011;27422;52.444;13.300;2023-07-13T14:41:17;4.20;;;0.88;;
41739;SDS011;27422;52.444;13.300;2023-07-13T14:43:42;3.60;;;0.60;;
41739;SDS011;27422;52.444;13.300;2023-07-13T14:46:11;3.92;;;0.80;;
41739;SDS011;27422;52.444;13.300;2023-07-13T14:49:03;1.77;;;0.60;;
41739;SDS011;27422;52.444;13.300;2023-07-13T14:51:40;3.03;;;0.70;;
41739;SDS011;27422;52.444;13.300;2023-07-13T14:54:07;2.13;;;0.50;;
41739;SDS011;27422;52.444;13.300;2023-07-13T14:56:33;2.33;;;0.70;;
41739;SDS011;27422;52.444;13.300;2023-07-13T14:58:59;2.92;;;0.60;;
41739;SDS011;27422;52.444;13.300;2023-07-13T15:01:25;3.10;;;0.85;;
41739;SDS011;27422;52.444;13.300;2023-07-13T15:03:53;3.25;;;0.73;;
41739;SDS011;27422;52.444;13.300;2023-07-13T15:06:19;2.75;;;0.68;;
41739;SDS011;27422;52.444;13.300;2023-07-13T15:08:45;3.03;;;0.60;;
41739;SDS011;27422;52.444;13.300;2023-07-13T15:11:12;2.38;;;0.80;;
41739;SDS011;27422;52.444;13.300;2023-07-13T15:13:39;2.15;;;0.60;;
41739;SDS011;27422;52.444;13.300;2023-07-13T15:16:16;2.95;;;0.70;;
41739;SDS011;27422;52.444;13.300;2023-07-13T15:18:44;2.92;;;0.60;;
41739;SDS011;27422;52.444;13.300;2023-07-13T15:21:11;2.00;;;0.50;;
41739;SDS011;27422;52.444;13.300;2023-07-13T15:23:43;2.25;;;0.70;;
41739;SDS011;27422;52.444;13.300;2023-07-13T15:26:11;2.63;;;0.70;;
41739;SDS011;27422;52.444;13.300;2023-07-13T15:28:38;1.85;;;0.55;;
41739;SDS011;27422;52.444;13.300;2023-07-13T15:31:23;2.35;;;0.60;;
41739;SDS011;27422;52.444;13.300;2023-07-13T15:33:50;2.25;;;0.50;;
41739;SDS011;27422;52.444;13.300;2023-07-13T15:36:17;3.80;;;0.70;;
41739;SDS011;27422;52.444;13.300;2023-07-13T15:38:44;3.42;;;0.68;;